sensor_id;sensor_type;location;lat;lon;timestamp;P1;durP1;ratioP1;P2;durP2;ratioP2
5077;SDS011;2557;51.390;7.494;2024-03-02T00:02:17;9.60;;;8.13;;
5077;SDS011;2557;51.390;7.494;2024-03-02T00:04:46;7.43;;;6.50;;
5077;SDS011;2557;51.390;7.494;2024-03-02T00:07:13;8.00;;;7.20;;
5077;SDS011;2557;51.390;7.494;2024-03-02T00:09:40;5.63;;;4.87;;
5077;SDS011;2557;51.390;7.494;2024-03-02T00:12:06;6.00;;;4.50;;
5077;SDS011;2557;51.390;7.494;2024-03-02T00:14:32;5.40;;;4.50;;
5077;SDS011;2557;51.390;7.494;2024-03-02T00:16:58;7.80;;;5.13;;
5077;SDS011;2557;51.390;7.494;2024-03-02T00:19:24;16.07;;;7.67;;
5077;SDS011;2557;51.390;7.494;2024-03-02T00:21:50;13.43;;;8.37;;
5077;SDS011;2557;51.390;7.494;2024-03-02T00:26:45;28.47;;;14.67;;
5077;SDS011;2557;51.390;7.494;2024-03-02T00:29:12;15.27;;;6.87;;
5077;SDS011;2557;51.390;7.494;2024-03-02T00:31:41;12.37;;;7.00;;
5077;SDS011;2557;51.390;7.494;2024-03-02T00:34:07;4.13;;;3.73;;
5077;SDS011;2557;51.390;7.494;2024-03-02T00:36:35;9.37;;;6.43;;
5077;SDS011;2557;51.390;7.494;2024-03-02T00:39:01;10.23;;;5.33;;
5077;SDS011;2557;51.390;7.494;2024-03-02T00:41:31;16.30;;;7.27;;
5077;SDS011;2557;51.390;7.494;2024-03-02T00:46:32;17.13;;;9.50;;
5077;SDS011;2557;51.390;7.494;2024-03-02T00:49:00;21.20;;;11.43;;
5077;SDS011;2557;51.390;7.494;2024-03-02T00:51:27;14.77;;;9.17;;
5077;SDS011;2557;51.390;7.494;2024-03-02T00:53:54;17.50;;;10.43;;
5077;SDS011;2557;51.390;7.494;2024-03-02T00:56:23;17.03;;;10.23;;
5077;SDS011;2557;51.390;7.494;2024-03-02T00:58:50;13.97;;;8.10;;
5077;SDS011;2557;51.390;7.494;2024-03-02T01:01:16;16.60;;;8.50;;
5077;SDS011;2557;51.390;7.494;2024-03-02T01:03:42;12.47;;;6.70;;
5077;SDS011;2557;51.390;7.494;2024-03-02T01:06:09;9.97;;;6.20;;
5077;SDS011;2557;51.390;7.494;2024-03-02T01:08:35;14.80;;;7.37;;
5077;SDS011;2557;51.390;7.494;2024-03-02T01:11:01;9.70;;;4.93;;
5077;SDS011;2557;51.390;7.494;2024-03-02T01:13:27;16.10;;;7.77;;
5077;SDS011;2557;51.390;7.494;2024-03-02T01:15:53;15.53;;;7.77;;
5077;SDS011;2557;51.390;7.494;2024-03-02T01:18:19;10.50;;;6.40;;
5077;SDS011;2557;51.390;7.494;2024-03-02T01:20:47;11.70;;;6.73;;
5077;SDS011;2557;51.390;7.494;2024-03-02T01:23:13;13.00;;;6.93;;
5077;SDS011;2557;51.390;7.494;2024-03-02T01:25:39;10.60;;;5.40;;
5077;SDS011;2557;51.390;7.494;2024-03-02T01:28:05;5.90;;;4.13;;
5077;SDS011;2557;51.390;7.494;2024-03-02T01:30:31;7.27;;;5.63;;
5077;SDS011;2557;51.390;7.494;2024-03-02T01:32:57;8.40;;;4.50;;
5077;SDS011;2557;51.390;7.494;2024-03-02T01:35:24;6.07;;;4.23;;
5077;SDS011;2557;51.390;7.494;2024-03-02T01:37:51;8.97;;;4.70;;
5077;SDS011;2557;51.390;7.494;2024-03-02T01:40:17;9.80;;;4.20;;
5077;SDS011;2557;51.390;7.494;2024-03-02T01:42:43;9.73;;;4.63;;
5077;SDS011;2557;51.390;7.494;2024-03-02T01:45:10;6.57;;;3.97;;
5077;SDS011;2557;51.390;7.494;2024-03-02T01:47:36;3.90;;;3.07;;
5077;SDS011;2557;51.390;7.494;2024-03-02T01:50:02;4.10;;;3.30;;
5077;SDS011;2557;51.390;7.494;2024-03-02T01:52:28;5.93;;;3.97;;
5077;SDS011;2557;51.390;7.494;2024-03-02T01:54:54;3.80;;;2.70;;
5077;SDS011;2557;51.390;7.494;2024-03-02T01:57:21;6.03;;;3.80;;
5077;SDS011;2557;51.390;7.494;2024-03-02T01:59:47;4.80;;;3.53;;
5077;SDS011;2557;51.390;7.494;2024-03-02T02:02:13;2.53;;;2.20;;
5077;SDS011;2557;51.390;7.494;2024-03-02T02:04:39;3.10;;;2.80;;
5077;SDS011;2557;51.390;7.494;2024-03-02T02:07:05;2.50;;;2.00;;
5077;SDS011;2557;51.390;7.494;2024-03-02T02:09:31;1.80;;;1.70;;
5077;SDS011;2557;51.390;7.494;2024-03-02T02:11:57;2.60;;;2.40;;
5077;SDS011;2557;51.390;7.494;2024-03-02T02:14:24;5.43;;;2.87;;
5077;SDS011;2557;51.390;7.494;2024-03-02T02:16:50;5.73;;;3.10;;
5077;SDS011;2557;51.390;7.494;2024-03-02T02:19:17;3.60;;;2.67;;
5077;SDS011;2557;51.390;7.494;2024-03-02T02:21:43;1.97;;;1.87;;
5077;SDS011;2557;51.390;7.494;2024-03-02T02:24:09;2.20;;;1.80;;
5077;SDS011;2557;51.390;7.494;2024-03-02T02:26:36;2.13;;;2.03;;
5077;SDS011;2557;51.390;7.494;2024-03-02T02:29:02;2.53;;;1.93;;
5077;SDS011;2557;51.390;7.494;2024-03-02T02:31:36;2.20;;;1.93;;
5077;SDS011;2557;51.390;7.494;2024-03-02T02:34:02;1.80;;;1.70;;
5077;SDS011;2557;51.390;7.494;2024-03-02T02:36:28;2.23;;;1.70;;
5077;SDS011;2557;51.390;7.494;2024-03-02T02:38:54;2.40;;;1.50;;
5077;SDS011;2557;51.390;7.494;2024-03-02T02:41:20;1.93;;;1.83;;
5077;SDS011;2557;51.390;7.494;2024-03-02T02:43:46;3.70;;;1.70;;
5077;SDS011;2557;51.390;7.494;2024-03-02T02:46:13;3.03;;;2.13;;
5077;SDS011;2557;51.390;7.494;2024-03-02T02:48:38;2.10;;;1.97;;
5077;SDS011;2557;51.390;7.494;2024-03-02T02:51:04;1.50;;;1.40;;
5077;SDS011;2557;51.390;7.494;2024-03-02T02:53:31;2.97;;;1.60;;
5077;SDS011;2557;51.390;7.494;2024-03-02T02:55:57;1.63;;;1.53;;
5077;SDS011;2557;51.390;7.494;2024-03-02T02:58:23;1.80;;;1.53;;
5077;SDS011;2557;51.390;7.494;2024-03-02T03:00:49;2.10;;;1.90;;
5077;SDS011;2557;51.390;7.494;2024-03-02T03:03:15;1.63;;;1.53;;
5077;SDS011;2557;51.390;7.494;2024-03-02T03:05:41;1.97;;;1.87;;
5077;SDS011;2557;51.390;7.494;2024-03-02T03:08:07;2.00;;;1.70;;
5077;SDS011;2557;51.390;7.494;2024-03-02T03:10:33;3.03;;;1.73;;
5077;SDS011;2557;51.390;7.494;2024-03-02T03:12:59;1.70;;;1.60;;
5077;SDS011;2557;51.390;7.494;2024-03-02T03:15:25;2.00;;;1.87;;
5077;SDS011;2557;51.390;7.494;2024-03-02T03:17:51;5.17;;;1.57;;
5077;SDS011;2557;51.390;7.494;2024-03-02T03:20:17;1.90;;;1.80;;
5077;SDS011;2557;51.390;7.494;2024-03-02T03:22:43;1.93;;;1.73;;
5077;SDS011;2557;51.390;7.494;2024-03-02T03:25:09;1.83;;;1.73;;
5077;SDS011;2557;51.390;7.494;2024-03-02T03:27:35;4.03;;;1.70;;
5077;SDS011;2557;51.390;7.494;2024-03-02T03:30:01;1.70;;;1.60;;
5077;SDS011;2557;51.390;7.494;2024-03-02T03:32:27;1.67;;;1.57;;
5077;SDS011;2557;51.390;7.494;2024-03-02T03:34:53;1.57;;;1.47;;
5077;SDS011;2557;51.390;7.494;2024-03-02T03:37:19;3.67;;;1.93;;
5077;SDS011;2557;51.390;7.494;2024-03-02T03:39:45;1.70;;;1.60;;
5077;SDS011;2557;51.390;7.494;2024-03-02T03:42:11;2.23;;;1.40;;
5077;SDS011;2557;51.390;7.494;2024-03-02T03:44:37;5.30;;;1.73;;
5077;SDS011;2557;51.390;7.494;2024-03-02T03:47:05;2.73;;;1.57;;
5077;SDS011;2557;51.390;7.494;2024-03-02T03:49:31;1.70;;;1.57;;
5077;SDS011;2557;51.390;7.494;2024-03-02T03:51:57;4.33;;;1.90;;
5077;SDS011;2557;51.390;7.494;2024-03-02T03:54:23;2.83;;;1.90;;
5077;SDS011;2557;51.390;7.494;2024-03-02T03:56:49;2.83;;;1.60;;
5077;SDS011;2557;51.390;7.494;2024-03-02T03:59:15;2.20;;;2.00;;
5077;SDS011;2557;51.390;7.494;2024-03-02T04:01:41;2.70;;;1.73;;
5077;SDS011;2557;51.390;7.494;2024-03-02T04:04:07;2.10;;;1.90;;
5077;SDS011;2557;51.390;7.494;2024-03-02T04:06:34;1.60;;;1.50;;
5077;SDS011;2557;51.390;7.494;2024-03-02T04:09:00;1.80;;;1.70;;
5077;SDS011;2557;51.390;7.494;2024-03-02T04:11:26;3.23;;;2.00;;
5077;SDS011;2557;51.390;7.494;2024-03-02T04:13:52;2.57;;;1.80;;
5077;SDS011;2557;51.390;7.494;2024-03-02T04:16:18;2.20;;;2.00;;
5077;SDS011;2557;51.390;7.494;2024-03-02T04:18:44;2.90;;;1.80;;
5077;SDS011;2557;51.390;7.494;2024-03-02T04:21:10;1.93;;;1.70;;
5077;SDS011;2557;51.390;7.494;2024-03-02T04:23:36;4.10;;;1.90;;
5077;SDS011;2557;51.390;7.494;2024-03-02T04:26:02;2.07;;;1.60;;
5077;SDS011;2557;51.390;7.494;2024-03-02T04:28:29;2.27;;;1.87;;
5077;SDS011;2557;51.390;7.494;2024-03-02T04:30:55;2.03;;;1.80;;
5077;SDS011;2557;51.390;7.494;2024-03-02T04:33:21;3.30;;;2.77;;
5077;SDS011;2557;51.390;7.494;2024-03-02T04:35:47;2.37;;;2.17;;
5077;SDS011;2557;51.390;7.494;2024-03-02T04:38:13;1.93;;;1.70;;
5077;SDS011;2557;51.390;7.494;2024-03-02T04:40:39;3.47;;;2.97;;
5077;SDS011;2557;51.390;7.494;2024-03-02T04:43:05;4.17;;;2.70;;
5077;SDS011;2557;51.390;7.494;2024-03-02T04:45:31;4.30;;;2.10;;
5077;SDS011;2557;51.390;7.494;2024-03-02T04:47:57;6.50;;;2.70;;
5077;SDS011;2557;51.390;7.494;2024-03-02T04:50:23;2.83;;;2.37;;
5077;SDS011;2557;51.390;7.494;2024-03-02T04:52:49;6.00;;;2.73;;
5077;SDS011;2557;51.390;7.494;2024-03-02T04:55:15;2.90;;;2.67;;
5077;SDS011;2557;51.390;7.494;2024-03-02T04:57:40;3.00;;;2.60;;
5077;SDS011;2557;51.390;7.494;2024-03-02T05:00:07;4.10;;;2.97;;
5077;SDS011;2557;51.390;7.494;2024-03-02T05:02:33;2.70;;;2.30;;
5077;SDS011;2557;51.390;7.494;2024-03-02T05:04:59;3.90;;;2.90;;
5077;SDS011;2557;51.390;7.494;2024-03-02T05:07:25;3.50;;;3.07;;
5077;SDS011;2557;51.390;7.494;2024-03-02T05:09:51;3.60;;;2.67;;
5077;SDS011;2557;51.390;7.494;2024-03-02T05:12:17;2.67;;;2.23;;
5077;SDS011;2557;51.390;7.494;2024-03-02T05:15:02;3.10;;;2.80;;
5077;SDS011;2557;51.390;7.494;2024-03-02T05:17:28;2.43;;;2.20;;
5077;SDS011;2557;51.390;7.494;2024-03-02T05:19:54;3.20;;;2.90;;
5077;SDS011;2557;51.390;7.494;2024-03-02T05:22:20;4.27;;;3.17;;
5077;SDS011;2557;51.390;7.494;2024-03-02T05:24:46;3.20;;;2.47;;
5077;SDS011;2557;51.390;7.494;2024-03-02T05:27:12;3.90;;;3.17;;
5077;SDS011;2557;51.390;7.494;2024-03-02T05:29:39;3.73;;;2.97;;
5077;SDS011;2557;51.390;7.494;2024-03-02T05:32:05;3.90;;;2.67;;
5077;SDS011;2557;51.390;7.494;2024-03-02T05:34:31;3.63;;;3.13;;
5077;SDS011;2557;51.390;7.494;2024-03-02T05:37:00;3.33;;;3.07;;
5077;SDS011;2557;51.390;7.494;2024-03-02T05:39:26;3.00;;;2.80;;
5077;SDS011;2557;51.390;7.494;2024-03-02T05:41:52;3.50;;;3.20;;
5077;SDS011;2557;51.390;7.494;2024-03-02T05:44:18;3.73;;;2.60;;
5077;SDS011;2557;51.390;7.494;2024-03-02T05:46:44;3.33;;;3.00;;
5077;SDS011;2557;51.390;7.494;2024-03-02T05:49:10;3.83;;;3.37;;
5077;SDS011;2557;51.390;7.494;2024-03-02T05:51:36;6.63;;;2.57;;
5077;SDS011;2557;51.390;7.494;2024-03-02T05:54:02;4.17;;;3.00;;
5077;SDS011;2557;51.390;7.494;2024-03-02T05:56:28;3.90;;;2.90;;
5077;SDS011;2557;51.390;7.494;2024-03-02T05:58:54;3.17;;;2.87;;
5077;SDS011;2557;51.390;7.494;2024-03-02T06:01:37;3.70;;;2.50;;
5077;SDS011;2557;51.390;7.494;2024-03-02T06:04:03;5.47;;;3.00;;
5077;SDS011;2557;51.390;7.494;2024-03-02T06:06:29;5.10;;;2.87;;
5077;SDS011;2557;51.390;7.494;2024-03-02T06:08:57;3.77;;;2.87;;
5077;SDS011;2557;51.390;7.494;2024-03-02T06:11:23;5.87;;;3.50;;
5077;SDS011;2557;51.390;7.494;2024-03-02T06:13:49;3.00;;;2.80;;
5077;SDS011;2557;51.390;7.494;2024-03-02T06:16:15;3.73;;;2.70;;
5077;SDS011;2557;51.390;7.494;2024-03-02T06:18:41;2.27;;;2.17;;
5077;SDS011;2557;51.390;7.494;2024-03-02T06:21:07;3.73;;;2.30;;
5077;SDS011;2557;51.390;7.494;2024-03-02T06:23:33;2.83;;;2.63;;
5077;SDS011;2557;51.390;7.494;2024-03-02T06:26:00;4.23;;;2.73;;
5077;SDS011;2557;51.390;7.494;2024-03-02T06:28:27;4.90;;;3.50;;
5077;SDS011;2557;51.390;7.494;2024-03-02T06:30:53;4.23;;;3.93;;
5077;SDS011;2557;51.390;7.494;2024-03-02T06:33:19;5.93;;;3.60;;
5077;SDS011;2557;51.390;7.494;2024-03-02T06:35:45;8.03;;;3.13;;
5077;SDS011;2557;51.390;7.494;2024-03-02T06:38:11;3.17;;;2.87;;
5077;SDS011;2557;51.390;7.494;2024-03-02T06:40:37;4.50;;;2.90;;
5077;SDS011;2557;51.390;7.494;2024-03-02T06:43:04;3.97;;;3.00;;
5077;SDS011;2557;51.390;7.494;2024-03-02T06:45:30;3.60;;;3.30;;
5077;SDS011;2557;51.390;7.494;2024-03-02T06:47:58;4.53;;;3.23;;
5077;SDS011;2557;51.390;7.494;2024-03-02T06:50:24;4.00;;;3.27;;
5077;SDS011;2557;51.390;7.494;2024-03-02T06:52:50;4.90;;;2.90;;
5077;SDS011;2557;51.390;7.494;2024-03-02T06:55:16;4.80;;;3.77;;
5077;SDS011;2557;51.390;7.494;2024-03-02T06:57:42;3.83;;;3.27;;
5077;SDS011;2557;51.390;7.494;2024-03-02T07:00:08;4.70;;;3.63;;
5077;SDS011;2557;51.390;7.494;2024-03-02T07:02:35;3.77;;;3.30;;
5077;SDS011;2557;51.390;7.494;2024-03-02T07:05:01;3.60;;;3.30;;
5077;SDS011;2557;51.390;7.494;2024-03-02T07:07:27;3.30;;;3.00;;
5077;SDS011;2557;51.390;7.494;2024-03-02T07:09:53;3.13;;;2.83;;
5077;SDS011;2557;51.390;7.494;2024-03-02T07:12:19;4.70;;;2.83;;
5077;SDS011;2557;51.390;7.494;2024-03-02T07:14:45;3.20;;;2.90;;
5077;SDS011;2557;51.390;7.494;2024-03-02T07:17:30;5.80;;;2.90;;
5077;SDS011;2557;51.390;7.494;2024-03-02T07:19:56;3.40;;;3.10;;
5077;SDS011;2557;51.390;7.494;2024-03-02T07:22:23;5.00;;;3.60;;
5077;SDS011;2557;51.390;7.494;2024-03-02T07:24:49;5.23;;;3.63;;
5077;SDS011;2557;51.390;7.494;2024-03-02T07:27:16;3.10;;;2.90;;
5077;SDS011;2557;51.390;7.494;2024-03-02T07:29:42;4.50;;;3.40;;
5077;SDS011;2557;51.390;7.494;2024-03-02T07:32:08;7.17;;;3.60;;
5077;SDS011;2557;51.390;7.494;2024-03-02T07:34:35;4.40;;;3.30;;
5077;SDS011;2557;51.390;7.494;2024-03-02T07:37:01;5.00;;;3.97;;
5077;SDS011;2557;51.390;7.494;2024-03-02T07:39:27;3.83;;;3.00;;
5077;SDS011;2557;51.390;7.494;2024-03-02T07:41:54;3.83;;;2.83;;
5077;SDS011;2557;51.390;7.494;2024-03-02T07:44:20;3.27;;;3.07;;
5077;SDS011;2557;51.390;7.494;2024-03-02T07:46:47;3.27;;;2.97;;
5077;SDS011;2557;51.390;7.494;2024-03-02T07:49:17;3.40;;;3.10;;
5077;SDS011;2557;51.390;7.494;2024-03-02T07:51:43;2.80;;;2.57;;
5077;SDS011;2557;51.390;7.494;2024-03-02T07:54:09;4.67;;;3.30;;
5077;SDS011;2557;51.390;7.494;2024-03-02T07:56:35;3.47;;;3.17;;
5077;SDS011;2557;51.390;7.494;2024-03-02T07:59:02;3.40;;;3.20;;
5077;SDS011;2557;51.390;7.494;2024-03-02T08:01:28;3.30;;;3.00;;
5077;SDS011;2557;51.390;7.494;2024-03-02T08:03:55;3.30;;;3.03;;
5077;SDS011;2557;51.390;7.494;2024-03-02T08:06:23;4.43;;;3.57;;
5077;SDS011;2557;51.390;7.494;2024-03-02T08:08:52;5.93;;;3.43;;
5077;SDS011;2557;51.390;7.494;2024-03-02T08:11:18;2.97;;;2.57;;
5077;SDS011;2557;51.390;7.494;2024-03-02T08:13:44;3.03;;;2.53;;
5077;SDS011;2557;51.390;7.494;2024-03-02T08:16:10;3.43;;;3.13;;
5077;SDS011;2557;51.390;7.494;2024-03-02T08:18:36;8.23;;;3.43;;
5077;SDS011;2557;51.390;7.494;2024-03-02T08:21:02;3.67;;;3.10;;
5077;SDS011;2557;51.390;7.494;2024-03-02T08:23:28;2.73;;;2.53;;
5077;SDS011;2557;51.390;7.494;2024-03-02T08:25:54;8.53;;;4.90;;
5077;SDS011;2557;51.390;7.494;2024-03-02T08:28:20;6.77;;;3.13;;
5077;SDS011;2557;51.390;7.494;2024-03-02T08:30:46;4.27;;;3.13;;
5077;SDS011;2557;51.390;7.494;2024-03-02T08:33:12;3.17;;;2.83;;
5077;SDS011;2557;51.390;7.494;2024-03-02T08:35:38;7.10;;;4.00;;
5077;SDS011;2557;51.390;7.494;2024-03-02T08:38:04;3.47;;;2.80;;
5077;SDS011;2557;51.390;7.494;2024-03-02T08:40:30;3.20;;;2.90;;
5077;SDS011;2557;51.390;7.494;2024-03-02T08:42:56;5.90;;;3.20;;
5077;SDS011;2557;51.390;7.494;2024-03-02T08:45:22;2.90;;;2.70;;
5077;SDS011;2557;51.390;7.494;2024-03-02T08:47:48;2.90;;;2.70;;
5077;SDS011;2557;51.390;7.494;2024-03-02T08:50:14;3.43;;;3.13;;
5077;SDS011;2557;51.390;7.494;2024-03-02T08:52:40;3.60;;;2.50;;
5077;SDS011;2557;51.390;7.494;2024-03-02T08:55:07;3.03;;;2.83;;
5077;SDS011;2557;51.390;7.494;2024-03-02T08:57:33;3.60;;;2.60;;
5077;SDS011;2557;51.390;7.494;2024-03-02T08:59:59;3.40;;;3.10;;
5077;SDS011;2557;51.390;7.494;2024-03-02T09:02:26;2.97;;;2.67;;
5077;SDS011;2557;51.390;7.494;2024-03-02T09:04:52;4.70;;;2.47;;
5077;SDS011;2557;51.390;7.494;2024-03-02T09:07:18;3.37;;;2.43;;
5077;SDS011;2557;51.390;7.494;2024-03-02T09:09:44;2.77;;;2.57;;
5077;SDS011;2557;51.390;7.494;2024-03-02T09:12:10;4.57;;;2.47;;
5077;SDS011;2557;51.390;7.494;2024-03-02T09:14:37;3.10;;;2.80;;
5077;SDS011;2557;51.390;7.494;2024-03-02T09:17:03;2.60;;;2.50;;
5077;SDS011;2557;51.390;7.494;2024-03-02T09:19:29;2.77;;;2.57;;
5077;SDS011;2557;51.390;7.494;2024-03-02T09:21:55;5.60;;;2.50;;
5077;SDS011;2557;51.390;7.494;2024-03-02T09:24:23;3.70;;;2.40;;
5077;SDS011;2557;51.390;7.494;2024-03-02T09:26:49;4.93;;;2.43;;
5077;SDS011;2557;51.390;7.494;2024-03-02T09:29:15;3.00;;;2.00;;
5077;SDS011;2557;51.390;7.494;2024-03-02T09:31:42;4.70;;;2.03;;
5077;SDS011;2557;51.390;7.494;2024-03-02T09:34:08;2.60;;;2.37;;
5077;SDS011;2557;51.390;7.494;2024-03-02T09:36:34;2.73;;;1.90;;
5077;SDS011;2557;51.390;7.494;2024-03-02T09:39:00;2.63;;;1.63;;
5077;SDS011;2557;51.390;7.494;2024-03-02T09:41:26;2.10;;;1.90;;
5077;SDS011;2557;51.390;7.494;2024-03-02T09:43:52;2.37;;;1.97;;
5077;SDS011;2557;51.390;7.494;2024-03-02T09:46:18;2.47;;;2.27;;
5077;SDS011;2557;51.390;7.494;2024-03-02T09:48:45;1.83;;;1.50;;
5077;SDS011;2557;51.390;7.494;2024-03-02T09:51:11;1.60;;;1.50;;
5077;SDS011;2557;51.390;7.494;2024-03-02T09:53:37;1.77;;;1.50;;
5077;SDS011;2557;51.390;7.494;2024-03-02T09:56:03;1.60;;;1.50;;
5077;SDS011;2557;51.390;7.494;2024-03-02T09:58:29;1.70;;;1.30;;
5077;SDS011;2557;51.390;7.494;2024-03-02T10:00:56;1.50;;;1.23;;
5077;SDS011;2557;51.390;7.494;2024-03-02T10:03:22;1.43;;;1.33;;
5077;SDS011;2557;51.390;7.494;2024-03-02T10:05:52;1.47;;;1.37;;
5077;SDS011;2557;51.390;7.494;2024-03-02T10:08:18;1.87;;;1.33;;
5077;SDS011;2557;51.390;7.494;2024-03-02T10:10:44;1.60;;;1.50;;
5077;SDS011;2557;51.390;7.494;2024-03-02T10:13:11;3.10;;;1.40;;
5077;SDS011;2557;51.390;7.494;2024-03-02T10:15:37;1.40;;;1.30;;
5077;SDS011;2557;51.390;7.494;2024-03-02T10:18:06;2.13;;;2.03;;
5077;SDS011;2557;51.390;7.494;2024-03-02T10:20:34;3.10;;;1.90;;
5077;SDS011;2557;51.390;7.494;2024-03-02T10:23:21;1.40;;;1.30;;
5077;SDS011;2557;51.390;7.494;2024-03-02T10:25:46;1.90;;;1.60;;
5077;SDS011;2557;51.390;7.494;2024-03-02T10:28:12;1.30;;;1.20;;
5077;SDS011;2557;51.390;7.494;2024-03-02T10:30:38;2.80;;;1.40;;
5077;SDS011;2557;51.390;7.494;2024-03-02T10:33:05;2.00;;;1.30;;
5077;SDS011;2557;51.390;7.494;2024-03-02T10:35:32;1.30;;;1.20;;
5077;SDS011;2557;51.390;7.494;2024-03-02T10:38:01;1.23;;;1.13;;
5077;SDS011;2557;51.390;7.494;2024-03-02T10:40:29;1.83;;;1.20;;
5077;SDS011;2557;51.390;7.494;2024-03-02T10:42:55;1.63;;;1.53;;
5077;SDS011;2557;51.390;7.494;2024-03-02T10:45:21;1.40;;;1.30;;
5077;SDS011;2557;51.390;7.494;2024-03-02T10:47:49;2.90;;;1.40;;
5077;SDS011;2557;51.390;7.494;2024-03-02T10:50:16;1.60;;;1.50;;
5077;SDS011;2557;51.390;7.494;2024-03-02T10:52:42;1.83;;;1.73;;
5077;SDS011;2557;51.390;7.494;2024-03-02T10:55:09;1.57;;;1.30;;
5077;SDS011;2557;51.390;7.494;2024-03-02T10:57:54;1.97;;;1.77;;
5077;SDS011;2557;51.390;7.494;2024-03-02T11:00:21;1.67;;;1.43;;
5077;SDS011;2557;51.390;7.494;2024-03-02T11:02:52;1.60;;;1.50;;
5077;SDS011;2557;51.390;7.494;2024-03-02T11:05:43;1.87;;;1.40;;
5077;SDS011;2557;51.390;7.494;2024-03-02T11:08:08;1.50;;;1.30;;
5077;SDS011;2557;51.390;7.494;2024-03-02T11:10:35;1.70;;;1.60;;
5077;SDS011;2557;51.390;7.494;2024-03-02T11:13:04;2.57;;;1.47;;
5077;SDS011;2557;51.390;7.494;2024-03-02T11:15:31;2.30;;;1.60;;
5077;SDS011;2557;51.390;7.494;2024-03-02T11:17:57;1.40;;;1.23;;
5077;SDS011;2557;51.390;7.494;2024-03-02T11:20:23;3.50;;;1.37;;
5077;SDS011;2557;51.390;7.494;2024-03-02T11:22:50;1.53;;;1.43;;
5077;SDS011;2557;51.390;7.494;2024-03-02T11:25:23;2.50;;;1.60;;
5077;SDS011;2557;51.390;7.494;2024-03-02T11:33:02;1.30;;;1.20;;
5077;SDS011;2557;51.390;7.494;2024-03-02T11:35:32;1.63;;;1.33;;
5077;SDS011;2557;51.390;7.494;2024-03-02T11:37:58;1.30;;;1.20;;
5077;SDS011;2557;51.390;7.494;2024-03-02T11:40:25;1.67;;;1.30;;
5077;SDS011;2557;51.390;7.494;2024-03-02T11:42:51;2.27;;;1.20;;
5077;SDS011;2557;51.390;7.494;2024-03-02T11:45:17;1.27;;;1.13;;
5077;SDS011;2557;51.390;7.494;2024-03-02T11:47:50;2.70;;;1.10;;
5077;SDS011;2557;51.390;7.494;2024-03-02T11:50:37;1.20;;;1.10;;
5077;SDS011;2557;51.390;7.494;2024-03-02T11:53:06;1.80;;;1.30;;
5077;SDS011;2557;51.390;7.494;2024-03-02T11:55:34;1.60;;;1.10;;
5077;SDS011;2557;51.390;7.494;2024-03-02T11:58:01;1.20;;;1.10;;
5077;SDS011;2557;51.390;7.494;2024-03-02T12:00:28;1.60;;;1.30;;
5077;SDS011;2557;51.390;7.494;2024-03-02T12:03:01;1.40;;;1.30;;
5077;SDS011;2557;51.390;7.494;2024-03-02T12:05:27;1.60;;;1.30;;
5077;SDS011;2557;51.390;7.494;2024-03-02T12:08:00;2.70;;;1.70;;
5077;SDS011;2557;51.390;7.494;2024-03-02T12:10:26;2.03;;;1.30;;
5077;SDS011;2557;51.390;7.494;2024-03-02T12:13:03;1.33;;;1.23;;
5077;SDS011;2557;51.390;7.494;2024-03-02T12:15:29;1.17;;;1.00;;
5077;SDS011;2557;51.390;7.494;2024-03-02T12:17:56;1.57;;;1.00;;
5077;SDS011;2557;51.390;7.494;2024-03-02T12:20:23;1.30;;;1.20;;
5077;SDS011;2557;51.390;7.494;2024-03-02T12:22:50;1.17;;;1.00;;
5077;SDS011;2557;51.390;7.494;2024-03-02T12:25:17;1.53;;;1.10;;
5077;SDS011;2557;51.390;7.494;2024-03-02T12:27:44;1.30;;;1.20;;
5077;SDS011;2557;51.390;7.494;2024-03-02T12:30:11;1.10;;;1.00;;
5077;SDS011;2557;51.390;7.494;2024-03-02T12:32:38;1.70;;;1.30;;
5077;SDS011;2557;51.390;7.494;2024-03-02T12:35:05;1.67;;;1.57;;
5077;SDS011;2557;51.390;7.494;2024-03-02T12:37:31;1.57;;;1.47;;
5077;SDS011;2557;51.390;7.494;2024-03-02T12:39:57;2.07;;;1.60;;
5077;SDS011;2557;51.390;7.494;2024-03-02T12:42:23;1.90;;;1.20;;
5077;SDS011;2557;51.390;7.494;2024-03-02T12:44:53;1.70;;;1.60;;
5077;SDS011;2557;51.390;7.494;2024-03-02T12:47:20;1.50;;;1.40;;
5077;SDS011;2557;51.390;7.494;2024-03-02T12:49:46;1.57;;;1.47;;
5077;SDS011;2557;51.390;7.494;2024-03-02T12:52:12;2.03;;;1.83;;
5077;SDS011;2557;51.390;7.494;2024-03-02T12:54:38;1.43;;;1.20;;
5077;SDS011;2557;51.390;7.494;2024-03-02T12:57:04;1.43;;;1.33;;
5077;SDS011;2557;51.390;7.494;2024-03-02T12:59:31;2.03;;;1.50;;
5077;SDS011;2557;51.390;7.494;2024-03-02T13:01:57;1.40;;;1.30;;
5077;SDS011;2557;51.390;7.494;2024-03-02T13:04:26;1.40;;;1.30;;
5077;SDS011;2557;51.390;7.494;2024-03-02T13:06:53;1.53;;;1.43;;
5077;SDS011;2557;51.390;7.494;2024-03-02T13:09:21;2.17;;;1.50;;
5077;SDS011;2557;51.390;7.494;2024-03-02T13:11:47;2.50;;;1.70;;
5077;SDS011;2557;51.390;7.494;2024-03-02T13:14:13;1.50;;;1.40;;
5077;SDS011;2557;51.390;7.494;2024-03-02T13:16:39;1.50;;;1.40;;
5077;SDS011;2557;51.390;7.494;2024-03-02T13:19:09;1.70;;;1.60;;
5077;SDS011;2557;51.390;7.494;2024-03-02T13:21:35;1.70;;;1.60;;
5077;SDS011;2557;51.390;7.494;2024-03-02T13:24:01;1.60;;;1.50;;
5077;SDS011;2557;51.390;7.494;2024-03-02T13:26:28;1.67;;;1.57;;
5077;SDS011;2557;51.390;7.494;2024-03-02T13:28:54;1.60;;;1.50;;
5077;SDS011;2557;51.390;7.494;2024-03-02T13:31:20;1.43;;;1.33;;
5077;SDS011;2557;51.390;7.494;2024-03-02T13:33:46;1.87;;;1.43;;
5077;SDS011;2557;51.390;7.494;2024-03-02T13:36:12;1.50;;;1.40;;
5077;SDS011;2557;51.390;7.494;2024-03-02T13:38:38;1.93;;;1.43;;
5077;SDS011;2557;51.390;7.494;2024-03-02T13:41:04;2.27;;;1.17;;
5077;SDS011;2557;51.390;7.494;2024-03-02T13:43:30;1.60;;;1.50;;
5077;SDS011;2557;51.390;7.494;2024-03-02T13:45:57;1.50;;;1.40;;
5077;SDS011;2557;51.390;7.494;2024-03-02T13:48:23;2.30;;;1.30;;
5077;SDS011;2557;51.390;7.494;2024-03-02T13:50:51;1.23;;;1.13;;
5077;SDS011;2557;51.390;7.494;2024-03-02T13:53:18;2.30;;;1.10;;
5077;SDS011;2557;51.390;7.494;2024-03-02T13:55:44;1.53;;;1.43;;
5077;SDS011;2557;51.390;7.494;2024-03-02T13:58:10;1.47;;;1.30;;
5077;SDS011;2557;51.390;7.494;2024-03-02T14:00:37;1.63;;;1.47;;
5077;SDS011;2557;51.390;7.494;2024-03-02T14:03:06;1.53;;;1.43;;
5077;SDS011;2557;51.390;7.494;2024-03-02T14:05:33;2.50;;;1.80;;
5077;SDS011;2557;51.390;7.494;2024-03-02T14:07:59;1.87;;;1.50;;
5077;SDS011;2557;51.390;7.494;2024-03-02T14:10:25;1.83;;;1.73;;
5077;SDS011;2557;51.390;7.494;2024-03-02T14:12:52;1.50;;;1.40;;
5077;SDS011;2557;51.390;7.494;2024-03-02T14:15:20;2.60;;;1.80;;
5077;SDS011;2557;51.390;7.494;2024-03-02T14:17:46;2.17;;;1.93;;
5077;SDS011;2557;51.390;7.494;2024-03-02T14:20:12;4.57;;;2.37;;
5077;SDS011;2557;51.390;7.494;2024-03-02T14:22:38;1.73;;;1.63;;
5077;SDS011;2557;51.390;7.494;2024-03-02T14:25:05;1.67;;;1.57;;
5077;SDS011;2557;51.390;7.494;2024-03-02T14:27:31;1.77;;;1.67;;
5077;SDS011;2557;51.390;7.494;2024-03-02T14:29:57;2.10;;;1.90;;
5077;SDS011;2557;51.390;7.494;2024-03-02T14:32:23;2.53;;;2.20;;
5077;SDS011;2557;51.390;7.494;2024-03-02T14:34:49;4.93;;;2.27;;
5077;SDS011;2557;51.390;7.494;2024-03-02T14:37:15;2.00;;;1.80;;
5077;SDS011;2557;51.390;7.494;2024-03-02T14:39:41;2.40;;;1.90;;
5077;SDS011;2557;51.390;7.494;2024-03-02T14:42:07;1.80;;;1.70;;
5077;SDS011;2557;51.390;7.494;2024-03-02T14:44:33;1.70;;;1.60;;
5077;SDS011;2557;51.390;7.494;2024-03-02T14:47:03;2.60;;;1.60;;
5077;SDS011;2557;51.390;7.494;2024-03-02T14:49:29;3.40;;;2.87;;
5077;SDS011;2557;51.390;7.494;2024-03-02T14:51:55;1.80;;;1.60;;
5077;SDS011;2557;51.390;7.494;2024-03-02T14:54:21;2.10;;;1.90;;
5077;SDS011;2557;51.390;7.494;2024-03-02T14:56:47;5.10;;;1.60;;
5077;SDS011;2557;51.390;7.494;2024-03-02T14:59:14;1.70;;;1.60;;
5077;SDS011;2557;51.390;7.494;2024-03-02T15:01:40;1.70;;;1.60;;
5077;SDS011;2557;51.390;7.494;2024-03-02T15:04:06;1.33;;;1.20;;
5077;SDS011;2557;51.390;7.494;2024-03-02T15:06:32;1.47;;;1.37;;
5077;SDS011;2557;51.390;7.494;2024-03-02T15:08:58;1.73;;;1.60;;
5077;SDS011;2557;51.390;7.494;2024-03-02T15:11:26;1.83;;;1.57;;
5077;SDS011;2557;51.390;7.494;2024-03-02T15:13:52;2.00;;;1.90;;
5077;SDS011;2557;51.390;7.494;2024-03-02T15:16:18;2.40;;;1.70;;
5077;SDS011;2557;51.390;7.494;2024-03-02T15:18:44;1.80;;;1.70;;
5077;SDS011;2557;51.390;7.494;2024-03-02T15:21:11;1.80;;;1.70;;
5077;SDS011;2557;51.390;7.494;2024-03-02T15:23:37;2.30;;;2.10;;